createdAt,value
2023-05-12T17:25:17.286Z,100182.16
2023-05-12T17:26:18.979Z,100188.06
2023-05-12T17:27:21.660Z,100188.03
2023-05-12T17:28:24.398Z,100190.91
2023-05-12T17:29:27.201Z,100181.47
2023-05-12T17:30:30.022Z,100186.41
2023-05-12T17:31:31.787Z,100183.91
2023-05-12T17:32:34.533Z,100186.66
2023-05-12T17:33:36.461Z,100196.28
2023-05-12T17:34:39.741Z,100195.69
2023-05-12T17:35:41.736Z,100187.03
2023-05-12T17:36:44.424Z,100190.22
2023-05-12T17:37:46.229Z,100192.81
2023-05-12T17:38:51.219Z,100199.00
2023-05-12T17:39:53.020Z,100192.66
2023-05-12T17:40:57.293Z,100189.94
2023-05-12T17:41:59.227Z,100188.06
2023-05-12T17:43:01.934Z,100189.16
2023-05-12T17:44:04.040Z,100186.91
2023-05-12T17:45:07.967Z,100186.31
2023-05-12T17:46:09.694Z,100186.56
2023-05-12T17:47:14.017Z,100185.38
2023-05-12T17:48:16.840Z,100187.78
2023-05-12T17:49:18.563Z,100187.44
2023-05-12T17:50:21.222Z,100192.81
2023-05-12T17:51:22.958Z,100191.06
2023-05-12T17:52:25.724Z,100191.78
2023-05-12T17:53:27.452Z,100189.94
2023-05-12T17:54:30.215Z,100191.16
2023-05-12T17:55:32.509Z,100194.28
2023-05-12T17:56:36.590Z,100188.25
2023-05-12T17:57:38.509Z,100196.31
2023-05-12T17:58:41.560Z,100195.59
2023-05-12T17:59:43.270Z,100198.72
2023-05-12T18:00:45.970Z,100194.84
2023-05-12T18:01:47.759Z,100194.13
2023-05-12T18:02:50.682Z,100201.94
2023-05-12T18:03:53.014Z,100190.38
2023-05-12T18:04:55.733Z,100196.50
2023-05-12T18:05:57.870Z,100188.81
2023-05-12T18:07:00.544Z,100193.00
2023-05-12T18:08:03.296Z,100194.47
2023-05-12T18:09:05.597Z,100191.44
2023-05-12T18:10:09.916Z,100196.72
2023-05-12T18:11:13.591Z,100192.03
2023-05-12T18:12:18.474Z,100197.34
2023-05-12T18:13:21.496Z,100203.72
2023-05-12T18:14:24.311Z,100198.19
2023-05-12T18:15:27.964Z,100208.19
2023-05-12T18:16:30.871Z,100205.41
2023-05-12T18:17:32.939Z,100203.47
2023-05-12T18:18:35.879Z,100202.97
2023-05-12T18:19:38.227Z,100202.72
2023-05-12T18:20:41.489Z,100201.63
2023-05-12T18:21:43.278Z,100199.47
2023-05-12T18:22:46.085Z,100206.72
2023-05-12T18:23:48.115Z,100210.31
2023-05-12T18:24:51.761Z,100200.31
2023-05-12T18:25:53.618Z,100212.25
2023-05-12T18:26:56.573Z,100213.09
2023-05-12T18:27:59.589Z,100219.72
2023-05-12T18:29:02.392Z,100215.25
2023-05-12T18:30:04.951Z,100217.19
2023-05-12T18:31:15.834Z,100220.19
2023-05-12T18:32:19.312Z,100219.09
2023-05-12T18:33:21.383Z,100216.56
2023-05-12T18:34:24.376Z,100219.63
2023-05-12T18:35:27.142Z,100222.63
2023-05-12T18:36:29.920Z,100217.91
2023-05-12T18:37:31.632Z,100220.94
2023-05-12T18:38:34.704Z,100229.25
2023-05-12T18:39:36.449Z,100223.69
2023-05-12T18:40:39.441Z,100228.41
2023-05-12T18:41:41.141Z,100233.13
2023-05-12T18:42:43.922Z,100230.09
2023-05-12T18:43:47.058Z,100226.75
2023-05-12T18:44:49.734Z,100231.66
2023-05-12T18:45:51.601Z,100229.97
2023-05-12T18:46:54.325Z,100235.78
2023-05-12T18:47:56.177Z,100236.03
2023-05-12T18:48:58.907Z,100230.72
2023-05-12T18:50:00.622Z,100236.25
2023-05-12T18:51:03.376Z,100242.06
2023-05-12T18:52:05.604Z,100245.06
2023-05-12T18:53:09.134Z,100243.38
2023-05-12T18:54:10.868Z,100241.94
2023-05-12T18:55:13.537Z,100251.34
2023-05-12T18:56:15.842Z,100245.81
2023-05-12T18:57:18.886Z,100257.13
2023-05-12T18:58:20.598Z,100245.19
2023-05-12T18:59:24.658Z,100254.84
2023-05-12T19:00:31.666Z,100261.69
2023-05-12T19:01:34.519Z,100251.09
2023-05-12T19:02:36.514Z,100256.03
2023-05-12T19:03:39.269Z,100259.06
2023-05-12T19:04:41.267Z,100263.16
2023-05-12T19:05:46.324Z,100255.34
2023-05-12T19:06:48.305Z,100268.34
2023-05-12T19:07:51.092Z,100255.81
2023-05-12T19:08:52.827Z,100261.59
2023-05-12T19:09:55.753Z,100264.84
2023-05-12T19:10:57.498Z,100268.72
2023-05-12T19:12:00.224Z,100264.47
2023-05-12T19:13:01.990Z,100268.31
2023-05-12T19:14:04.664Z,100276.91
2023-05-12T19:15:09.974Z,100270.50
2023-05-12T19:16:12.001Z,100270.50
2023-05-12T19:17:14.751Z,100279.06
2023-05-12T19:18:17.178Z,100281.22
2023-05-12T19:19:19.963Z,100277.84
2023-05-12T19:20:21.738Z,100280.25
2023-05-12T19:21:24.475Z,100278.22
2023-05-12T19:22:27.549Z,100282.75
2023-05-12T19:23:31.307Z,100272.13
2023-05-12T19:24:33.005Z,100277.09
2023-05-12T19:25:35.738Z,100271.78
2023-05-12T19:26:37.523Z,100274.78
2023-05-12T19:27:40.690Z,100277.53
2023-05-12T19:28:42.384Z,100280.56
2023-05-12T19:29:45.270Z,100280.56
2023-05-12T19:30:48.492Z,100283.34
2023-05-12T19:31:52.854Z,100278.38
2023-05-12T19:32:54.853Z,100275.03
2023-05-12T19:33:57.631Z,100285.84
2023-05-12T19:35:00.211Z,100285.84
2023-05-12T19:36:03.189Z,100285.25
2023-05-12T19:37:06.702Z,100285.25
2023-05-12T19:38:09.372Z,100285.25
2023-05-12T19:39:11.054Z,100283.56
2023-05-12T19:40:14.027Z,100283.78
2023-05-12T19:41:15.758Z,100284.91
2023-05-12T19:42:18.433Z,100283.22
2023-05-12T19:43:20.141Z,100285.34
2023-05-12T19:44:23.005Z,100284.28
2023-05-12T19:45:24.758Z,100288.13
2023-05-12T19:46:29.417Z,100287.28
2023-05-12T19:47:31.393Z,100284.78
2023-05-12T19:48:34.173Z,100287.75
2023-05-12T19:49:36.379Z,100291.88
2023-05-12T19:50:39.166Z,100287.63
2023-05-12T19:51:41.629Z,100288.97
2023-05-12T19:52:44.370Z,100289.69
2023-05-12T19:53:47.294Z,100290.13
2023-05-12T19:54:48.988Z,100285.31
2023-05-12T19:55:51.901Z,100296.59
2023-05-12T19:56:53.604Z,100287.72
2023-05-12T19:57:56.480Z,100294.53
2023-05-12T19:58:58.279Z,100293.69
2023-05-12T20:00:00.995Z,100294.78
2023-05-12T20:01:02.824Z,100291.19
2023-05-12T20:02:07.086Z,100299.47
2023-05-12T20:03:09.011Z,100287.56
2023-05-12T20:04:11.851Z,100292.47
2023-05-12T20:05:13.622Z,100292.25
2023-05-12T20:06:16.580Z,100292.47
2023-05-12T20:07:18.290Z,100293.59
2023-05-12T20:08:20.943Z,100295.50
2023-05-12T20:09:24.631Z,100292.75
2023-05-12T20:10:27.413Z,100303.81
2023-05-12T20:11:29.123Z,100292.97
2023-05-12T20:12:31.906Z,100292.97
2023-05-12T20:13:33.625Z,100301.25
2023-05-12T20:14:38.299Z,100295.09
2023-05-12T20:15:40.138Z,100300.63
2023-05-12T20:16:43.002Z,100301.50
2023-05-12T20:17:46.236Z,100302.56
2023-05-12T20:18:49.008Z,100303.41
2023-05-12T20:19:50.774Z,100293.66
2023-05-12T20:20:53.478Z,100307.72
2023-05-12T20:21:55.177Z,100297.72
2023-05-12T20:22:57.853Z,100300.13
2023-05-12T20:23:59.566Z,100294.25
2023-05-12T20:25:04.443Z,100300.47
2023-05-12T20:26:07.829Z,100298.63
2023-05-12T20:27:09.550Z,100302.09
2023-05-12T20:28:12.425Z,100305.53
2023-05-12T20:29:20.676Z,100300.91
2023-05-12T20:30:23.564Z,100305.72
2023-05-12T20:31:25.448Z,100313.63
2023-05-12T20:32:28.178Z,100304.94
2023-05-12T20:33:32.765Z,100308.16
2023-05-12T20:34:34.475Z,100311.16
2023-05-12T20:35:37.178Z,100312.22
2023-05-12T20:36:38.910Z,100310.56
2023-05-12T20:37:41.924Z,100309.94
2023-05-12T20:38:43.658Z,100312.91
2023-05-12T20:39:46.365Z,100309.56
2023-05-12T20:40:49.129Z,100306.16
2023-05-12T20:41:50.903Z,100313.84
2023-05-12T20:42:53.563Z,100300.75
2023-05-12T20:43:55.464Z,100309.72
2023-05-12T20:44:59.082Z,100304.84
2023-05-12T20:46:03.298Z,100301.97
2023-05-12T20:47:06.786Z,100312.38
2023-05-12T20:48:09.072Z,100305.63
2023-05-12T20:49:13.159Z,100299.72
2023-05-12T20:50:15.750Z,100305.47
2023-05-12T20:51:18.770Z,100303.16
2023-05-12T20:52:20.514Z,100307.00
2023-05-12T20:53:23.270Z,100307.22
2023-05-12T20:54:24.974Z,100305.53
2023-05-12T20:55:27.686Z,100305.78
2023-05-12T20:56:29.428Z,100307.91
2023-05-12T20:57:32.278Z,100308.13
2023-05-12T20:58:34.038Z,100310.03
2023-05-12T20:59:36.708Z,100304.97
2023-05-12T21:00:38.431Z,100306.91
2023-05-12T21:01:41.476Z,100312.63
2023-05-12T21:02:44.250Z,100303.75
2023-05-12T21:03:46.182Z,100303.94
2023-05-12T21:04:50.349Z,100308.84
2023-05-12T21:05:52.053Z,100298.63
2023-05-12T21:06:54.782Z,100311.00
2023-05-12T21:07:56.503Z,100308.22
2023-05-12T21:08:59.168Z,100307.84
2023-05-12T21:10:01.010Z,100301.47
2023-05-12T21:11:03.737Z,100311.03
2023-05-12T21:12:06.418Z,100306.59
2023-05-12T21:13:09.133Z,100312.34
2023-05-12T21:14:10.805Z,100309.81
2023-05-12T21:15:13.731Z,100313.03
2023-05-12T21:16:15.524Z,100312.63
2023-05-12T21:17:18.335Z,100316.69
2023-05-12T21:18:20.006Z,100315.22
2023-05-12T21:19:22.687Z,100317.34
2023-05-12T21:20:25.714Z,100319.72
2023-05-12T21:21:28.619Z,100312.72
2023-05-12T21:22:30.412Z,100311.28
2023-05-12T21:23:33.205Z,100317.25
2023-05-12T21:24:36.485Z,100322.34
2023-05-12T21:25:39.289Z,100318.34
2023-05-12T21:26:40.978Z,100327.09
2023-05-12T21:27:43.637Z,100321.16
2023-05-12T21:28:45.326Z,100333.28
2023-05-12T21:29:48.093Z,100327.34
2023-05-12T21:30:49.848Z,100326.72
2023-05-12T21:31:52.523Z,100322.94
2023-05-12T21:32:54.303Z,100324.66
2023-05-12T21:33:57.096Z,100323.16
2023-05-12T21:34:58.822Z,100329.97
2023-05-12T21:36:03.441Z,100329.34
2023-05-12T21:37:05.443Z,100324.50
2023-05-12T21:38:09.979Z,100320.28
2023-05-12T21:39:11.755Z,100322.41
2023-05-12T21:40:14.890Z,100322.84
2023-05-12T21:41:16.603Z,100321.38
2023-05-12T21:42:19.318Z,100324.38
2023-05-12T21:43:21.007Z,100334.75
2023-05-12T21:44:23.751Z,100333.47
2023-05-12T21:45:26.069Z,100328.41
2023-05-12T21:46:28.876Z,100336.50
2023-05-12T21:47:30.784Z,100326.56
2023-05-12T21:48:33.712Z,100329.56
2023-05-12T21:49:35.479Z,100325.38
2023-05-12T21:50:38.182Z,100324.31
2023-05-12T21:51:41.963Z,100329.63
2023-05-12T21:52:44.766Z,100328.38
2023-05-12T21:53:47.594Z,100329.44
2023-05-12T21:54:49.350Z,100320.13
2023-05-12T21:55:52.068Z,100326.50
2023-05-12T21:56:53.787Z,100325.25
2023-05-12T21:57:56.510Z,100324.38
2023-05-12T21:58:58.239Z,100326.28
2023-05-12T22:00:03.737Z,100325.69
2023-05-12T22:01:05.697Z,100326.75
2023-05-12T22:02:08.366Z,100335.00
2023-05-12T22:03:10.209Z,100336.06
2023-05-12T22:04:13.041Z,100338.81
2023-05-12T22:05:14.996Z,100336.25
2023-05-12T22:06:17.779Z,100335.41
2023-05-12T22:07:20.796Z,100330.16
2023-05-12T22:08:23.532Z,100332.03
2023-05-12T22:09:25.232Z,100338.59
2023-05-12T22:10:27.969Z,100325.03
2023-05-12T22:11:29.690Z,100333.31
2023-05-12T22:12:32.371Z,100329.69
2023-05-12T22:13:34.045Z,100328.03
2023-05-12T22:14:37.214Z,100324.63
2023-05-12T22:15:39.025Z,100324.03
2023-05-12T22:16:42.734Z,100328.03
2023-05-12T22:17:46.042Z,100333.13
2023-05-12T22:18:48.809Z,100330.59
2023-05-12T22:19:50.876Z,100328.03
2023-05-12T22:20:53.631Z,100325.72
2023-05-12T22:21:55.352Z,100329.53
2023-05-12T22:22:59.368Z,100332.72
2023-05-12T22:24:01.097Z,100334.84
2023-05-12T22:25:04.559Z,100342.69
2023-05-12T22:26:06.303Z,100330.22
2023-05-12T22:27:08.934Z,100330.59
2023-05-12T22:28:10.999Z,100337.13
2023-05-12T22:29:13.698Z,100336.53
2023-05-12T22:30:15.515Z,100335.88
2023-05-12T22:31:18.240Z,100342.66
2023-05-12T22:32:19.968Z,100341.41
2023-05-12T22:33:22.757Z,100341.59
2023-05-12T22:34:24.496Z,100339.06
2023-05-12T22:35:27.286Z,100341.41
2023-05-12T22:36:29.015Z,100342.44
2023-05-12T22:37:31.843Z,100343.50
2023-05-12T22:38:34.937Z,100340.97
2023-05-12T22:39:37.669Z,100337.59
2023-05-12T22:40:39.334Z,100340.53
2023-05-12T22:41:42.137Z,100339.91
2023-05-12T22:42:43.858Z,100340.97
2023-05-12T22:43:46.599Z,100334.84
2023-05-12T22:44:48.280Z,100339.28
2023-05-12T22:45:52.805Z,100341.16
2023-05-12T22:46:54.600Z,100337.81
2023-05-12T22:47:57.340Z,100339.72
2023-05-12T22:48:59.076Z,100332.72
2023-05-12T22:50:02.121Z,100339.28
2023-05-12T22:51:03.846Z,100339.50
2023-05-12T22:52:07.081Z,100333.34
2023-05-12T22:53:08.840Z,100337.19
2023-05-12T22:54:12.903Z,100339.28
2023-05-12T22:55:14.695Z,100342.22
2023-05-12T22:56:17.456Z,100339.72
2023-05-12T22:57:19.348Z,100341.81
2023-05-12T22:58:22.086Z,100337.34
2023-05-12T22:59:23.901Z,100343.94
2023-05-12T23:00:26.704Z,100345.00
2023-05-12T23:01:28.435Z,100343.28
2023-05-12T23:02:31.216Z,100347.94
2023-05-12T23:03:33.064Z,100353.44
2023-05-12T23:04:35.904Z,100345.38
2023-05-12T23:05:37.625Z,100350.28
2023-05-12T23:06:40.266Z,100345.81
2023-05-12T23:07:42.080Z,100346.00
2023-05-12T23:08:44.752Z,100349.84
2023-05-12T23:09:47.847Z,100347.09
2023-05-12T23:10:50.652Z,100345.41
2023-05-12T23:11:52.361Z,100355.53
2023-05-12T23:12:55.301Z,100350.03
2023-05-12T23:13:57.355Z,100350.03
2023-05-12T23:15:00.065Z,100348.34
2023-05-12T23:16:01.736Z,100351.28
2023-05-12T23:17:04.490Z,100346.88
2023-05-12T23:18:06.325Z,100346.41
2023-05-12T23:19:09.205Z,100349.41
2023-05-12T23:20:12.034Z,100354.25
2023-05-12T23:21:14.700Z,100353.81
2023-05-12T23:22:16.460Z,100350.44
2023-05-12T23:23:19.171Z,100358.91
2023-05-12T23:24:21.658Z,100350.84
2023-05-12T23:25:25.815Z,100356.34
2023-05-12T23:26:28.477Z,100353.78
2023-05-12T23:27:30.230Z,100355.69
2023-05-12T23:28:32.955Z,100352.94
2023-05-12T23:29:34.756Z,100360.16
2023-05-12T23:30:37.633Z,100356.75
2023-05-12T23:31:39.423Z,100358.44
2023-05-12T23:32:42.623Z,100365.00
2023-05-12T23:33:44.577Z,100365.00
2023-05-12T23:34:47.345Z,100378.09
2023-05-12T23:35:49.038Z,100373.84
2023-05-12T23:36:51.670Z,100361.38
2023-05-12T23:37:53.344Z,100359.06
2023-05-12T23:38:55.993Z,100355.88
2023-05-12T23:39:57.736Z,100352.69
2023-05-12T23:41:01.766Z,100355.63
2023-05-12T23:42:03.967Z,100351.56
2023-05-12T23:43:06.889Z,100346.31
2023-05-12T23:44:08.563Z,100349.44
2023-05-12T23:45:12.310Z,100346.94
2023-05-12T23:46:13.999Z,100344.19
2023-05-12T23:47:17.060Z,100345.22
2023-05-12T23:48:19.068Z,100339.94
2023-05-12T23:49:21.718Z,100334.63
2023-05-12T23:50:23.640Z,100339.06
2023-05-12T23:51:26.544Z,100332.72
2023-05-12T23:52:28.205Z,100329.97
2023-05-12T23:53:31.147Z,100335.28
2023-05-12T23:54:32.829Z,100336.13
2023-05-12T23:55:35.727Z,100327.91
2023-05-12T23:56:38.765Z,100329.59
2023-05-12T23:57:41.445Z,100329.59
2023-05-12T23:58:43.224Z,100324.28
2023-05-12T23:59:45.920Z,100328.94
